Terminal Aerodrome Forecast
Issued by NWS

Home | Current Version | Previous Version | Text Only | Print | Product List | Glossary On
Versions: 1 2 3 4 5 6 7 8 9 10 11 12 13 14 15 16 17 18 19 20 21 22 23 24 25 26 27 28 29 30
000
FTUS44 KBMX 272100 AAA
TAFEET
TAF AMD
KEET 272100Z 2721/2818 17005KT P6SM -TSRA BKN035CB
     FM272200 VRB03KT P6SM VCTS BKN035CB
      TEMPO 2800/2802 2SM TSRA SCT015 BKN025CB
     FM280300 00000KT P6SM BKN100
     FM280700 00000KT 4SM BR BKN050
     FM281400 VRB03KT P6SM BKN100=

USA.gov is the U.S. government's official web portal to all federal, state and local government web resources and services.